Aculco, Mexico
Current Conditions -  °F | °C
As of 5:45 AM on Monday 22 Dec 2014 (Local Time) from MMQT Reporting Station
Scattered Clouds Scattered Clouds  
Wind Chill: 46°   Ceiling: Unl
Heat Index: 48°   Visibility: 8mi
Dew Point: 39°   Wind: 5mph
Humidity: 71%   Direction: 310°NW
Pressure: 30.2"   Gusts: NA
Location:  20.12°N, 99.83°W
Report Text: MMQT 221145Z 31004KT 8SM SCT020 09/04 A3020 RMK 8/500
Loading
Personal Weather Stations






























Interactive Weather Map New forecast layout! Learn more

10-Day Weather Forecast

Advertisements
Track Severe Weather on mobile